Aviation Digital Data Service (ADDS)

Output produced by METARs form (0313 UTC 09 February 2016)
found at http://aviationweather.gov/adds/metars/
 
KGSP 082332Z 0900/0924 26010G18KT P6SM BKN100 
     FM090100 26009KT P6SM SCT110 
     FM091800 26012G19KT P6SM BKN050